General Aviation Weather

Text Reports

Enter one or more of the following location identifiers separated by a space:

Zip Code, Four-Character ICAO or Three-Character IATA airport codes.

METAR - Aviation Routine Weather Report
KOOA - Oskaloosa, Iowa
Updated at 9:15 PM GMT on April 23, 2014 (4:15 PM CDT):
METAR KOOA 232115Z AUTO 13014KT 10SM SCT055 OVC090 09/05 A3000 RMK AO2 T00850050
TAF - Terminal Area Forecast
KOOA - Oskaloosa, Iowa
Updated at 9:15 PM GMT on April 23, 2014 (4:15 PM CDT):
No TAF is currently available for this location.
Decoded:
No decoded TAF is available.
PIREP - Pilot Weather Report
KOOA - Oskaloosa, Iowa
Updated at 9:15 PM GMT on April 23, 2014 (4:15 PM CDT):
No PIREP is currently available for this location.
AIRMET - Airmens Meteorological Information
KOOA - Oskaloosa, Iowa
Updated at 9:15 PM GMT on April 23, 2014 (4:15 PM CDT):
No AIRMET is currently available for this location.
SIGMET - Significant Meteorological Information
KOOA - Oskaloosa, Iowa
Updated at 9:15 PM GMT on April 23, 2014 (4:15 PM CDT):
No SIGMET is currently available for this location.
NOTAM - Notice to Airmen
KOOA - Oskaloosa, Iowa
Updated at 9:15 PM GMT on April 23, 2014 (4:15 PM CDT):
No NOTAM is currently available for this location.
Forecast Area
KOOA - Oskaloosa, Iowa
Updated at 9:15 PM GMT on April 23, 2014 (4:15 PM CDT):
No NOTAM is currently available for this location.
Aviation Weather Maps